Time;durP1;ratioP1;P1;durP2;ratioP2;P2;SDS_P1;SDS_P2;PMS_P1;PMS_P2;Temp;Humidity;BMP_temperature;BMP_pressure;BME280_temperature;BME280_humidity;BME280_pressure;Samples;Min_cycle;Max_cycle;Signal;HPM_P1;HPM_P2
2022/12/10 00:01:51;;;;;;;19.05;3.95;;;;;;;17.46;67.77;95453.72;5095715;28;20388;-34
2022/12/10 00:04:17;;;;;;;12.32;3.38;;;;;;;17.47;67.82;95439.50;5096058;28;20138;-33
2022/12/10 00:06:43;;;;;;;12.15;3.55;;;;;;;17.52;67.42;95441.53;5096079;28;20024;-34
2022/12/10 00:09:14;;;;;;;17.40;3.60;;;;;;;17.46;67.77;95438.00;5095692;28;20016;-33
2022/12/10 00:11:40;;;;;;;15.57;2.80;;;;;;;17.41;67.92;95430.53;5094756;28;20384;-35
2022/12/10 00:14:07;;;;;;;15.43;2.78;;;;;;;17.46;67.63;95432.53;5095882;28;20031;-33
2022/12/10 00:16:36;;;;;;;17.98;3.40;;;;;;;17.44;67.87;95429.53;5095568;28;20467;-33
2022/12/10 00:19:01;;;;;;;14.30;3.10;;;;;;;17.31;68.43;95414.84;5095904;28;20024;-33
2022/12/10 00:21:30;;;;;;;17.27;3.50;;;;;;;17.45;67.86;95422.81;5095598;28;20051;-33
2022/12/10 00:23:56;;;;;;;14.68;3.50;;;;;;;17.27;68.38;95414.31;5095565;28;20106;-33
2022/12/10 00:26:30;;;;;;;17.77;3.25;;;;;;;17.31;68.42;95412.81;5095543;28;20028;-33
2022/12/10 00:28:56;;;;;;;20.17;3.42;;;;;;;17.31;68.29;95414.84;5096523;28;20491;-33
2022/12/10 00:31:35;;;;;;;19.88;3.47;;;;;;;17.38;68.07;95408.84;5115637;28;20093;-33
2022/12/10 00:34:05;;;;;;;22.30;2.83;;;;;;;17.42;68.01;95409.38;5115876;28;20445;-34
2022/12/10 00:36:37;;;;;;;13.95;2.97;;;;;;;17.30;68.43;95405.84;5115610;28;20023;-33
2022/12/10 00:39:03;;;;;;;16.40;3.00;;;;;;;17.32;68.40;95397.88;5116248;28;20015;-33
2022/12/10 00:41:29;;;;;;;10.63;2.60;;;;;;;17.39;67.91;95402.88;5115673;28;20033;-33
2022/12/10 00:43:54;;;;;;;16.85;3.15;;;;;;;17.34;68.37;95392.66;5115605;28;20019;-33
2022/12/10 00:46:20;;;;;;;15.50;3.85;;;;;;;17.34;68.18;95395.38;5115495;28;20031;-33
2022/12/10 00:48:45;;;;;;;18.27;3.00;;;;;;;17.38;68.02;95376.72;5115544;28;20055;-33
2022/12/10 00:51:23;;;;;;;18.50;2.97;;;;;;;17.39;67.88;95378.22;5114181;28;20030;-33
2022/12/10 00:53:50;;;;;;;19.02;3.55;;;;;;;17.44;67.57;95385.69;5115587;28;20034;-33
2022/12/10 00:56:18;;;;;;;15.43;3.33;;;;;;;17.40;68.01;95382.47;5115339;28;20023;-33
2022/12/10 00:58:44;;;;;;;14.27;2.83;;;;;;;17.37;67.85;95388.91;5115299;28;20028;-33
2022/12/10 01:01:29;;;;;;;12.15;3.15;;;;;;;17.45;67.56;95384.44;5115290;28;20034;-34
2022/12/10 01:04:03;;;;;;;14.45;2.28;;;;;;;17.38;67.73;95387.69;5113748;28;20507;-35
2022/12/10 01:06:28;;;;;;;;;;;;;;;17.37;67.81;95386.19;5115639;28;20054;-33
2022/12/10 01:08:57;;;;;;;16.30;2.60;;;;;;;17.37;67.67;95397.16;5115063;28;20402;-33
2022/12/10 01:11:26;;;;;;;12.98;3.58;;;;;;;17.37;67.92;95388.91;5115014;28;20362;-33
2022/12/10 01:13:52;;;;;;;13.35;2.92;;;;;;;17.35;67.99;95385.91;5114666;28;20031;-33
2022/12/10 01:16:20;;;;;;;18.08;3.15;;;;;;;17.36;67.72;95384.69;5115019;28;20023;-33
2022/12/10 01:18:46;;;;;;;15.77;3.13;;;;;;;17.35;67.79;95385.91;5114962;28;20023;-33
2022/12/10 01:21:15;;;;;;;17.48;3.28;;;;;;;17.36;67.87;95390.16;5114915;28;20081;-33
2022/12/10 01:23:42;;;;;;;16.88;2.60;;;;;;;17.37;67.63;95388.91;5114740;28;20024;-34
2022/12/10 01:26:14;;;;;;;12.90;3.03;;;;;;;17.41;67.58;95381.22;5114646;28;20070;-33
2022/12/10 01:28:41;;;;;;;16.13;2.97;;;;;;;17.44;67.49;95385.69;5114417;28;20027;-33
2022/12/10 01:31:10;;;;;;;18.90;3.03;;;;;;;17.45;67.32;95364.50;5101553;28;20032;-33
2022/12/10 01:33:36;;;;;;;17.42;2.42;;;;;;;17.38;67.71;95367.75;5094102;28;20028;-33
2022/12/10 01:36:08;;;;;;;16.88;2.67;;;;;;;17.36;67.84;95357.28;5094287;28;20035;-33
2022/12/10 01:38:34;;;;;;;13.48;3.10;;;;;;;17.39;67.65;95364.50;5094185;28;20051;-33
2022/12/10 01:41:00;;;;;;;11.65;2.70;;;;;;;17.42;67.59;95358.03;5094227;28;20047;-33
2022/12/10 01:43:26;;;;;;;21.48;3.97;;;;;;;17.38;67.68;95354.78;5094095;28;20047;-34
2022/12/10 01:45:52;;;;;;;15.30;2.88;;;;;;;17.42;67.44;95355.31;5094052;28;20038;-33
2022/12/10 01:48:19;;;;;;;13.13;2.97;;;;;;;17.49;67.27;95349.31;5093692;28;20036;-33
2022/12/10 01:50:45;;;;;;;10.27;3.00;;;;;;;17.42;67.52;95340.84;5094183;28;20059;-33
2022/12/10 01:53:13;;;;;;;11.98;3.00;;;;;;;17.37;67.59;95336.84;5094075;28;20057;-33
2022/12/10 01:55:41;;;;;;;16.25;3.15;;;;;;;17.35;67.63;95331.13;5093928;28;20023;-33
2022/12/10 01:58:07;;;;;;;14.25;2.67;;;;;;;17.40;67.49;95330.38;5093956;28;20024;-33
2022/12/10 02:00:38;;;;;;;14.00;2.95;;;;;;;17.39;67.50;95322.66;5093960;28;20016;-33
2022/12/10 02:03:18;;;;;;;15.02;3.45;;;;;;;17.37;67.76;95320.41;5093838;28;20036;-33
2022/12/10 02:05:52;;;;;;;9.38;2.13;;;;;;;17.39;67.53;95312.44;5094097;28;20016;-33
2022/12/10 02:08:41;;;;;;;15.73;3.35;;;;;;;17.35;67.91;95303.72;5093413;28;20047;-33
2022/12/10 02:11:14;;;;;;;15.32;2.63;;;;;;;17.39;67.68;95296.00;5093700;28;20521;-33
2022/12/10 02:13:43;;;;;;;16.75;3.30;;;;;;;17.40;67.54;95300.22;5093529;28;20020;-33
2022/12/10 02:16:21;;;;;;;16.58;3.00;;;;;;;17.39;67.71;95290.50;5093535;28;20039;-33
2022/12/10 02:18:56;;;;;;;14.43;3.08;;;;;;;17.43;67.55;95293.72;5093857;28;20530;-33
2022/12/10 02:21:50;;;;;;;15.90;2.83;;;;;;;17.35;68.00;95287.25;5093721;28;20392;-33
2022/12/10 02:24:23;;;;;;;22.73;4.18;;;;;;;17.30;68.06;95282.53;5091440;28;20483;-34
2022/12/10 02:26:52;;;;;;;16.67;3.28;;;;;;;17.30;68.14;95292.75;5093467;28;20042;-33
2022/12/10 02:29:26;;;;;;;20.42;3.13;;;;;;;17.28;68.35;95284.28;5093288;28;20069;-33
2022/12/10 02:32:04;;;;;;;23.52;4.32;;;;;;;17.34;67.99;95280.28;5104256;28;20023;-33
2022/12/10 02:34:35;;;;;;;22.88;4.18;;;;;;;17.23;68.70;95270.06;5113833;28;20031;-33
2022/12/10 02:37:16;;;;;;;18.70;3.60;;;;;;;17.22;68.45;95270.56;5113743;28;20030;-34
2022/12/10 02:39:48;;;;;;;28.60;4.75;;;;;;;17.23;68.62;95281.03;5113810;28;20360;-33
2022/12/10 02:42:16;;;;;;;28.10;4.60;;;;;;;17.14;69.22;95261.34;5113734;28;20058;-35
2022/12/10 02:44:44;;;;;;;24.02;4.95;;;;;;;17.25;68.51;95258.63;5113870;28;20043;-33
2022/12/10 02:47:11;;;;;;;24.85;4.57;;;;;;;17.21;68.82;95253.38;5113834;28;20024;-33
2022/12/10 02:49:40;;;;;;;37.67;5.40;;;;;;;17.11;69.35;95248.66;5113790;28;20099;-34
2022/12/10 02:52:07;;;;;;;22.98;4.30;;;;;;;17.03;70.04;95239.44;5113647;28;20024;-33
2022/12/10 02:54:40;;;;;;;31.40;5.25;;;;;;;16.97;70.31;95255.09;5113612;28;20016;-33
2022/12/10 02:57:19;;;;;;;36.58;5.68;;;;;;;17.03;70.08;95240.19;5113902;28;20019;-33
2022/12/10 03:00:00;;;;;;;29.90;5.43;;;;;;;17.11;69.60;95226.72;5113734;28;20023;-33
2022/12/10 03:02:44;;;;;;;33.22;5.40;;;;;;;17.04;70.03;95228.00;5113437;28;20499;-33
2022/12/10 03:05:18;;;;;;;42.42;6.15;;;;;;;17.08;69.78;95219.50;5113381;28;20023;-33
2022/12/10 03:07:52;;;;;;;31.83;4.25;;;;;;;17.05;70.01;95206.84;5113658;28;20053;-33
2022/12/10 03:10:37;;;;;;;30.92;6.20;;;;;;;17.01;70.28;95204.34;5113410;28;20479;-33
2022/12/10 03:13:08;;;;;;;39.70;4.97;;;;;;;17.04;69.83;95195.13;5113566;28;20023;-33
2022/12/10 03:15:38;;;;;;;31.73;5.75;;;;;;;17.09;69.80;95213.53;5113546;28;20050;-33
2022/12/10 03:18:06;;;;;;;36.70;4.70;;;;;;;17.09;69.74;95194.34;5113349;28;20016;-33
2022/12/10 03:20:38;;;;;;;32.38;4.22;;;;;;;16.80;70.94;95194.88;5113254;28;20456;-33
2022/12/10 03:23:08;;;;;;;39.70;4.43;;;;;;;16.94;70.35;95191.13;5110010;28;20057;-33
2022/12/10 03:25:36;;;;;;;33.10;6.20;;;;;;;17.03;70.39;95199.09;5116924;28;20110;-33
2022/12/10 03:28:01;;;;;;;25.80;5.05;;;;;;;16.67;71.67;95184.41;5116954;28;20028;-33
2022/12/10 03:30:30;;;;;;;23.85;4.30;;;;;;;16.95;70.50;95200.84;5117064;28;20031;-33
2022/12/10 03:32:56;;;;;;;24.42;4.15;;;;;;;16.94;70.65;95184.91;5116867;28;20475;-33
2022/12/10 03:35:23;;;;;;;28.33;4.72;;;;;;;16.68;71.66;95196.84;5117102;28;20059;-33
2022/12/10 03:37:49;;;;;;;23.95;3.90;;;;;;;16.89;70.81;95183.66;5115667;28;20083;-33
2022/12/10 03:40:17;;;;;;;28.75;4.50;;;;;;;17.01;70.43;95173.47;5116780;28;20511;-33
2022/12/10 03:42:43;;;;;;;24.20;4.43;;;;;;;17.08;69.91;95160.00;5116723;28;20024;-33
2022/12/10 03:45:09;;;;;;;22.60;5.20;;;;;;;17.04;69.89;95151.31;5116594;28;20089;-33
2022/12/10 03:47:35;;;;;;;28.98;5.03;;;;;;;17.06;69.97;95153.53;5116765;28;20027;-33
2022/12/10 03:50:01;;;;;;;24.52;4.38;;;;;;;17.11;69.47;95139.06;5116651;28;20102;-33
2022/12/10 03:52:26;;;;;;;18.95;3.28;;;;;;;17.23;69.24;95135.81;5116632;28;20051;-33
2022/12/10 03:54:52;;;;;;;22.88;3.78;;;;;;;17.12;69.45;95127.63;5116630;28;20097;-33
2022/12/10 03:57:17;;;;;;;22.70;3.50;;;;;;;17.11;69.72;95125.38;5116841;28;20480;-33
2022/12/10 03:59:43;;;;;;;15.23;3.88;;;;;;;17.13;69.52;95118.16;5116327;28;20019;-35
2022/12/10 04:02:08;;;;;;;22.77;3.97;;;;;;;17.08;69.65;95110.69;5116340;28;20483;-33
2022/12/10 04:04:34;;;;;;;19.30;3.50;;;;;;;17.08;69.70;95101.72;5116442;28;20019;-33
2022/12/10 04:06:59;;;;;;;17.35;3.92;;;;;;;17.00;70.17;95095.28;5116271;28;20478;-33
2022/12/10 04:09:25;;;;;;;22.10;3.42;;;;;;;16.81;71.18;95084.81;5116281;28;20098;-33
2022/12/10 04:11:55;;;;;;;17.52;3.92;;;;;;;16.42;72.63;95089.56;5116281;28;20023;-34
2022/12/10 04:17:04;;;;;;;21.88;4.13;;;;;;;16.07;74.71;95111.91;5115869;28;20041;-33
2022/12/10 04:19:30;;;;;;;16.85;3.60;;;;;;;16.22;74.06;95100.72;5116095;28;20020;-33
2022/12/10 04:27:30;;;;;;;15.38;2.85;;;;;;;16.13;74.51;95063.41;5116284;28;20121;-34
2022/12/10 04:29:57;;;;;;;23.23;3.17;;;;;;;16.12;74.35;95102.94;5116008;28;20527;-33
2022/12/10 04:32:24;;;;;;;23.30;3.67;;;;;;;16.65;72.10;95093.06;5114259;28;20028;-33
2022/12/10 04:34:49;;;;;;;24.40;4.00;;;;;;;16.41;72.89;95099.00;5114908;28;20041;-33
2022/12/10 04:37:16;;;;;;;21.00;4.65;;;;;;;16.70;71.97;95084.84;5115825;28;20028;-34
2022/12/10 04:39:41;;;;;;;21.15;3.42;;;;;;;16.85;71.05;95134.63;5115901;28;20071;-33
2022/12/10 04:42:08;;;;;;;16.98;3.35;;;;;;;16.90;70.78;95124.16;5115582;28;20027;-33
2022/12/10 04:44:34;;;;;;;15.73;2.65;;;;;;;16.99;70.26;95121.16;5115699;28;20024;-33
2022/12/10 04:47:00;;;;;;;10.05;2.30;;;;;;;16.87;70.80;95129.41;5116048;28;20015;-33
2022/12/10 04:49:26;;;;;;;13.63;2.97;;;;;;;16.81;71.13;95122.44;5116082;28;20349;-33
2022/12/10 04:51:52;;;;;;;10.90;2.03;;;;;;;16.86;70.79;95127.91;5115431;28;20030;-33
2022/12/10 04:54:18;;;;;;;10.65;2.08;;;;;;;16.94;70.62;95114.44;5115288;28;20023;-33
2022/12/10 04:56:44;;;;;;;12.98;2.80;;;;;;;17.03;70.09;95121.66;5115516;28;20460;-33
2022/12/10 04:59:11;;;;;;;13.60;2.20;;;;;;;16.86;70.98;95121.66;5115369;28;20076;-33
2022/12/10 05:01:36;;;;;;;9.80;2.22;;;;;;;17.00;70.30;95120.66;5113811;28;20023;-33
2022/12/10 05:04:04;;;;;;;11.77;2.45;;;;;;;16.82;71.08;95102.00;5115385;28;20141;-33
2022/12/10 05:06:30;;;;;;;10.90;1.88;;;;;;;16.88;70.88;95111.72;5115080;28;20034;-33
2022/12/10 05:08:56;;;;;;;15.38;2.40;;;;;;;16.94;70.38;95102.75;5115093;28;20100;-33
2022/12/10 05:11:25;;;;;;;12.25;1.88;;;;;;;16.95;70.74;95131.63;5115045;28;20023;-33
2022/12/10 05:13:51;;;;;;;7.90;1.73;;;;;;;16.96;70.46;95109.22;5114814;28;20027;-34
2022/12/10 05:16:19;;;;;;;11.10;1.73;;;;;;;17.13;69.66;95114.69;5106305;28;20209;-33
2022/12/10 05:18:45;;;;;;;11.32;2.38;;;;;;;16.98;70.32;95112.19;5094495;28;20095;-33
2022/12/10 05:21:13;;;;;;;12.70;2.55;;;;;;;17.04;69.95;95115.69;5095182;28;20487;-33
2022/12/10 05:23:41;;;;;;;14.57;2.17;;;;;;;17.04;70.05;95117.69;5094381;28;20024;-33
2022/12/10 05:26:11;;;;;;;8.98;2.20;;;;;;;17.07;69.65;95131.09;5094431;28;20032;-33
2022/12/10 05:28:56;;;;;;;12.70;2.00;;;;;;;16.89;70.69;95120.69;5094249;28;20027;-33
2022/12/10 05:31:29;;;;;;;10.15;2.17;;;;;;;16.95;70.37;95129.63;5094008;28;20105;-33
2022/12/10 05:33:55;;;;;;;12.95;2.03;;;;;;;17.04;69.89;95123.16;5094355;28;20488;-33
2022/12/10 05:36:23;;;;;;;7.82;2.58;;;;;;;16.93;70.57;95131.41;5094439;28;20157;-33
2022/12/10 05:38:50;;;;;;;11.02;3.15;;;;;;;16.56;71.98;95128.88;5094170;28;20105;-33
2022/12/10 05:41:19;;;;;;;13.13;2.28;;;;;;;16.96;70.25;95124.91;5094178;28;20110;-33
2022/12/10 05:43:45;;;;;;;8.40;1.75;;;;;;;16.96;70.14;95128.38;5094242;28;20024;-33
2022/12/10 05:46:14;;;;;;;12.00;2.63;;;;;;;16.80;70.89;95116.22;5094118;28;20800;-35
2022/12/10 05:48:39;;;;;;;12.68;2.58;;;;;;;16.96;70.28;95111.19;5093945;28;20468;-33
2022/12/10 05:51:10;;;;;;;13.77;2.47;;;;;;;17.04;69.77;95128.63;5093767;28;20024;-33
2022/12/10 05:53:37;;;;;;;12.85;2.85;;;;;;;16.99;70.01;95110.97;5094035;28;20047;-33
2022/12/10 05:56:04;;;;;;;8.75;2.08;;;;;;;17.05;69.53;95102.75;5093969;28;20024;-33
2022/12/10 05:58:30;;;;;;;15.18;2.40;;;;;;;16.88;70.16;95100.78;5093644;28;20030;-33
2022/12/10 06:00:57;;;;;;;15.05;3.05;;;;;;;17.02;69.66;95109.97;5094009;28;20020;-33
2022/12/10 06:03:23;;;;;;;12.40;2.30;;;;;;;17.15;69.17;95117.66;5093862;28;20044;-34
2022/12/10 06:05:48;;;;;;;10.48;1.98;;;;;;;17.20;68.75;95119.63;5093777;28;20031;-33
2022/12/10 06:08:14;;;;;;;10.65;2.05;;;;;;;17.20;68.72;95122.38;5093565;28;20032;-33
2022/12/10 06:10:39;;;;;;;15.57;2.25;;;;;;;16.98;69.78;95119.66;5093649;28;20024;-35
2022/12/10 06:13:05;;;;;;;12.80;1.88;;;;;;;17.08;69.28;95126.38;5093579;28;20063;-33
2022/12/10 06:15:32;;;;;;;10.18;2.42;;;;;;;17.17;68.76;95128.88;5093831;28;20119;-33
2022/12/10 06:17:58;;;;;;;10.68;2.13;;;;;;;17.17;68.64;95120.66;5093551;28;20024;-33
2022/12/10 06:20:25;;;;;;;14.05;3.35;;;;;;;17.03;69.07;95111.47;5093488;28;20050;-33
2022/12/10 06:22:51;;;;;;;11.25;1.98;;;;;;;17.15;68.80;95118.41;5093670;28;20030;-33
2022/12/10 06:25:17;;;;;;;8.77;2.50;;;;;;;17.08;68.80;95134.59;5092651;28;20114;-33
2022/12/10 06:27:43;;;;;;;10.38;2.10;;;;;;;17.02;69.32;95131.13;5093314;28;20032;-34
2022/12/10 06:30:09;;;;;;;11.52;2.63;;;;;;;17.12;68.74;95118.66;5093316;28;20533;-33
2022/12/10 06:32:35;;;;;;;12.85;2.85;;;;;;;17.07;68.81;95122.88;5102434;28;20098;-33
2022/12/10 06:35:01;;;;;;;9.45;1.95;;;;;;;17.07;69.02;95127.63;5113867;28;20053;-33
2022/12/10 06:37:26;;;;;;;10.73;1.80;;;;;;;16.99;69.32;95126.66;5113989;28;20023;-34
2022/12/10 06:39:52;;;;;;;7.65;1.70;;;;;;;17.02;69.16;95131.13;5113624;28;20156;-33
2022/12/10 06:42:21;;;;;;;4.03;1.20;;;;;;;16.87;69.45;95125.91;5113833;28;20032;-33
2022/12/10 06:44:47;;;;;;;8.63;1.67;;;;;;;16.95;69.07;95123.41;5113670;28;20020;-33
2022/12/10 06:47:13;;;;;;;11.15;1.60;;;;;;;17.01;68.88;95118.69;5113562;28;20408;-34
2022/12/10 06:49:39;;;;;;;6.47;1.40;;;;;;;17.07;68.83;95119.41;5113343;28;20028;-33
2022/12/10 06:52:04;;;;;;;5.75;1.00;;;;;;;17.11;68.48;95117.91;5113618;28;20019;-33
2022/12/10 06:54:30;;;;;;;9.25;1.92;;;;;;;17.14;68.06;95127.88;5113547;28;20031;-33
2022/12/10 06:56:57;;;;;;;5.05;1.05;;;;;;;17.04;68.52;95126.66;5113597;28;20111;-33
2022/12/10 06:59:22;;;;;;;7.65;2.05;;;;;;;17.15;67.88;95112.19;5114814;28;20024;-33
2022/12/10 07:01:48;;;;;;;5.85;1.50;;;;;;;17.14;68.12;95116.91;5117412;27;20053;-34
2022/12/10 07:04:14;;;;;;;4.40;1.45;;;;;;;17.02;68.90;95120.19;5117758;28;20027;-34
2022/12/10 07:06:39;;;;;;;5.68;1.20;;;;;;;17.15;67.86;95123.16;5117566;28;20433;-34
2022/12/10 07:09:05;;;;;;;6.07;1.10;;;;;;;17.00;68.51;95115.19;5117377;28;20444;-33
2022/12/10 07:11:31;;;;;;;4.85;1.10;;;;;;;17.03;68.32;95116.19;5117724;28;20355;-33
2022/12/10 07:13:58;;;;;;;8.77;1.30;;;;;;;17.08;68.06;95113.44;5117545;28;20043;-33
2022/12/10 07:16:29;;;;;;;10.93;1.90;;;;;;;17.01;68.39;95113.94;5117557;28;20030;-33
2022/12/10 07:18:56;;;;;;;5.78;1.10;;;;;;;17.02;68.10;95114.69;5117335;28;20415;-33
2022/12/10 07:21:29;;;;;;;5.13;1.15;;;;;;;17.06;68.11;95104.25;5104825;28;20028;-35
2022/12/10 07:23:57;;;;;;;5.65;1.10;;;;;;;17.05;68.12;95098.00;5096813;28;20069;-33
2022/12/10 07:26:28;;;;;;;4.20;0.75;;;;;;;17.02;68.18;95126.41;5096571;28;20039;-35
2022/12/10 07:28:54;;;;;;;4.53;0.82;;;;;;;17.08;67.83;95116.16;5096801;28;20059;-33
2022/12/10 07:31:21;;;;;;;4.70;1.15;;;;;;;16.98;68.37;95103.25;5096743;28;20043;-33
2022/12/10 07:33:47;;;;;;;3.13;0.98;;;;;;;17.11;67.74;95103.47;5096721;28;20034;-33
2022/12/10 07:36:14;;;;;;;5.45;1.17;;;;;;;17.01;68.41;95091.28;5095253;28;20031;-33
2022/12/10 07:38:40;;;;;;;3.75;1.00;;;;;;;17.04;68.09;95101.25;5096439;28;20452;-33
2022/12/10 07:41:11;;;;;;;3.90;1.25;;;;;;;16.91;68.66;95093.56;5096780;28;20028;-33
2022/12/10 07:43:38;;;;;;;3.63;0.80;;;;;;;17.04;68.13;95079.34;5096240;28;20031;-33
2022/12/10 07:46:16;;;;;;;5.50;0.85;;;;;;;16.99;68.28;95085.56;5096696;28;20028;-33
2022/12/10 07:48:43;;;;;;;3.80;1.02;;;;;;;17.15;67.40;95084.78;5096522;28;20122;-33
2022/12/10 07:51:08;;;;;;;4.18;0.90;;;;;;;16.90;68.39;95080.34;5096128;28;20024;-33
2022/12/10 07:53:35;;;;;;;2.10;1.08;;;;;;;17.03;68.10;95089.56;5096410;28;20498;-34
2022/12/10 07:56:01;;;;;;;5.72;1.38;;;;;;;17.00;68.15;95073.38;5096411;28;20024;-33
2022/12/10 07:58:27;;;;;;;4.07;0.95;;;;;;;16.98;68.29;95081.31;5096059;28;20016;-33
2022/12/10 08:00:52;;;;;;;4.45;1.20;;;;;;;17.05;67.79;95081.59;5096154;28;20499;-33
2022/12/10 08:03:18;;;;;;;3.55;1.73;;;;;;;16.98;68.08;95090.28;5095751;28;20048;-33
2022/12/10 08:05:44;;;;;;;7.80;1.23;;;;;;;16.96;68.08;95098.25;5096101;28;20095;-34
2022/12/10 08:08:09;;;;;;;4.88;1.20;;;;;;;16.95;68.39;95090.53;5096045;28;20476;-34
2022/12/10 08:10:36;;;;;;;2.95;1.17;;;;;;;17.04;67.90;95088.31;5094826;28;20020;-33
2022/12/10 08:13:02;;;;;;;4.78;1.00;;;;;;;17.12;67.55;95089.28;5096009;28;20024;-33
2022/12/10 08:15:28;;;;;;;3.72;1.10;;;;;;;17.13;67.69;95088.03;5095939;28;20028;-34
2022/12/10 08:17:54;;;;;;;5.05;1.10;;;;;;;17.01;68.12;95083.81;5095725;28;20021;-33
2022/12/10 08:20:20;;;;;;;3.08;1.00;;;;;;;17.06;67.72;95077.56;5095621;28;20408;-34
2022/12/10 08:22:45;;;;;;;2.28;0.95;;;;;;;17.10;67.76;95060.88;5095708;28;20024;-33
2022/12/10 08:25:11;;;;;;;5.72;1.40;;;;;;;16.98;67.96;95075.84;5095635;28;20032;-33
2022/12/10 08:27:36;;;;;;;3.65;1.13;;;;;;;17.05;67.63;95047.97;5108140;28;20103;-33
2022/12/10 08:30:02;;;;;;;4.55;1.00;;;;;;;16.96;67.96;95045.47;5116514;28;20467;-33
2022/12/10 08:32:27;;;;;;;2.70;0.80;;;;;;;16.94;67.99;95048.00;5114525;28;20062;-33
2022/12/10 08:34:53;;;;;;;2.38;0.90;;;;;;;16.85;68.17;95041.53;5115383;28;20024;-33
2022/12/10 08:37:18;;;;;;;1.83;0.75;;;;;;;17.05;67.69;95037.00;5115514;28;20031;-32
2022/12/10 08:39:43;;;;;;;2.15;0.90;;;;;;;17.07;67.44;95042.72;5115926;28;20031;-33
2022/12/10 08:42:09;;;;;;;1.80;0.80;;;;;;;17.10;67.41;95049.94;5115910;28;20024;-34
2022/12/10 08:44:34;;;;;;;2.58;0.70;;;;;;;17.05;67.62;95047.97;5115935;28;20479;-33
2022/12/10 08:47:00;;;;;;;2.45;0.90;;;;;;;17.05;67.52;95047.97;5115464;28;20038;-33
2022/12/10 08:49:25;;;;;;;2.22;0.68;;;;;;;17.08;67.43;95033.25;5115520;28;20027;-33
2022/12/10 08:51:51;;;;;;;3.63;0.80;;;;;;;17.15;66.95;95030.75;5115590;28;20116;-33
2022/12/10 08:54:16;;;;;;;2.67;0.95;;;;;;;17.12;67.23;95025.53;5115484;28;20037;-34
2022/12/10 08:56:42;;;;;;;2.28;0.90;;;;;;;16.98;67.77;95024.56;5115722;28;20035;-34
2022/12/10 08:59:07;;;;;;;3.20;0.80;;;;;;;17.03;67.42;95020.31;5115428;28;20030;-33
2022/12/10 09:01:33;;;;;;;1.88;0.60;;;;;;;16.97;67.89;95016.84;5113948;28;20047;-33
2022/12/10 09:04:00;;;;;;;2.78;0.60;;;;;;;17.07;67.43;95015.31;5114809;28;20435;-33
2022/12/10 09:06:26;;;;;;;0.85;0.50;;;;;;;17.05;67.32;95017.84;5115132;28;20028;-33
2022/12/10 09:08:52;;;;;;;1.25;0.70;;;;;;;16.97;67.71;95016.84;5114429;28;20050;-35
2022/12/10 09:11:27;;;;;;;1.85;0.82;;;;;;;17.05;67.08;95012.38;5113895;28;20499;-34
2022/12/10 09:13:52;;;;;;;1.48;0.50;;;;;;;16.99;67.62;95017.09;5115066;28;20016;-33
2022/12/10 09:16:18;;;;;;;3.63;1.65;;;;;;;17.11;67.07;95013.06;5115017;28;20073;-33
2022/12/10 09:18:44;;;;;;;1.90;0.60;;;;;;;17.02;67.42;95011.38;5114924;28;20070;-33
2022/12/10 09:21:16;;;;;;;2.88;0.70;;;;;;;17.13;66.97;95013.31;5114595;27;20020;-33
2022/12/10 09:23:42;;;;;;;2.60;0.60;;;;;;;16.99;67.54;95017.84;5115096;28;20069;-34
2022/12/10 09:26:10;;;;;;;3.80;0.77;;;;;;;17.04;67.25;94999.91;5114884;28;20106;-33
2022/12/10 09:28:36;;;;;;;0.93;0.57;;;;;;;16.97;67.46;95003.16;5111568;28;20026;-33
2022/12/10 09:31:03;;;;;;;0.68;0.50;;;;;;;16.94;67.47;95009.66;5114710;28;20035;-33
2022/12/10 09:33:30;;;;;;;1.98;0.70;;;;;;;17.07;67.04;95001.63;5114821;28;20485;-33
2022/12/10 09:35:56;;;;;;;1.80;0.60;;;;;;;17.00;67.24;94993.94;5114837;28;20470;-33
2022/12/10 09:38:22;;;;;;;2.15;0.80;;;;;;;17.09;66.79;94993.66;5113335;28;20034;-33
2022/12/10 09:41:01;;;;;;;1.92;0.80;;;;;;;17.14;66.78;94995.63;5114669;28;20027;-33
2022/12/10 09:43:52;;;;;;;1.67;0.50;;;;;;;16.97;67.35;95000.41;5114503;28;20028;-33
2022/12/10 09:46:23;;;;;;;1.13;0.50;;;;;;;17.04;66.86;95008.88;5114835;28;20039;-33
2022/12/10 09:49:13;;;;;;;1.98;0.50;;;;;;;17.10;66.89;94975.97;5114444;28;20030;-33
2022/12/10 09:51:39;;;;;;;2.15;0.70;;;;;;;16.93;67.25;94981.53;5100582;28;20533;-35
2022/12/10 09:54:19;;;;;;;0.93;0.57;;;;;;;16.90;67.42;94970.81;5093926;28;20028;-34
2022/12/10 09:56:45;;;;;;;1.50;0.65;;;;;;;16.96;67.40;94975.03;5093821;28;20050;-33
2022/12/10 09:59:24;;;;;;;1.80;0.70;;;;;;;17.01;66.98;94968.78;5093883;28;20026;-33
2022/12/10 10:02:20;;;;;;;0.80;0.50;;;;;;;17.01;67.04;94957.09;5074998;28;20027;-33
2022/12/10 10:04:46;;;;;;;2.45;0.70;;;;;;;17.05;66.75;94952.84;5092684;28;20023;-34
2022/12/10 10:07:25;;;;;;;2.15;0.75;;;;;;;17.03;66.98;94943.63;5093858;28;20358;-34
2022/12/10 10:09:58;;;;;;;2.25;0.80;;;;;;;17.03;67.02;94929.94;5093637;28;20026;-33
2022/12/10 10:12:23;;;;;;;2.10;0.60;;;;;;;17.05;66.64;94921.97;5093574;28;20383;-33
2022/12/10 10:14:49;;;;;;;1.75;0.77;;;;;;;17.08;66.83;94918.22;5093578;28;20081;-34
2022/12/10 10:17:33;;;;;;;2.38;0.98;;;;;;;16.98;67.32;94911.53;5093830;28;20050;-33
2022/12/10 10:19:59;;;;;;;4.22;2.20;;;;;;;17.03;67.04;94903.31;5093837;28;20472;-33
2022/12/10 10:22:26;;;;;;;7.07;4.13;;;;;;;16.95;67.37;94896.84;5093652;28;20034;-34
2022/12/10 10:24:52;;;;;;;11.00;5.65;;;;;;;16.97;67.03;94882.66;5093426;28;20070;-34
2022/12/10 10:27:19;;;;;;;6.43;3.50;;;;;;;17.02;66.74;94885.38;5093584;28;20040;-33
2022/12/10 10:29:46;;;;;;;6.63;3.58;;;;;;;16.95;67.25;94876.94;5093219;28;20038;-33
2022/12/10 10:32:16;;;;;;;7.50;3.90;;;;;;;17.01;66.78;94885.88;5093379;28;20031;-33
2022/12/10 10:34:42;;;;;;;6.30;3.42;;;;;;;17.01;66.96;94886.63;5093207;28;20031;-34
2022/12/10 10:37:20;;;;;;;6.43;3.20;;;;;;;17.06;66.72;94890.59;5093520;28;20032;-33
2022/12/10 10:39:50;;;;;;;5.13;3.03;;;;;;;17.07;66.66;94889.31;5106215;28;20035;-33
2022/12/10 10:42:43;;;;;;;5.07;3.03;;;;;;;17.03;66.85;94872.44;5114035;28;20038;-33
2022/12/10 10:45:30;;;;;;;7.90;2.70;;;;;;;16.99;67.12;94875.44;5107193;28;20062;-34
2022/12/10 10:48:05;;;;;;;4.22;2.42;;;;;;;17.04;66.87;94868.44;5113684;28;20410;-33
2022/12/10 10:50:37;;;;;;;6.10;2.70;;;;;;;17.01;66.88;94859.25;5113627;28;20422;-33
2022/12/10 10:53:25;;;;;;;4.68;2.38;;;;;;;17.03;66.74;94842.31;5113723;28;20434;-33
2022/12/10 10:55:53;;;;;;;4.25;2.28;;;;;;;16.97;66.93;94838.84;5113766;28;20027;-33
2022/12/10 10:58:20;;;;;;;4.47;2.83;;;;;;;17.01;66.93;94831.84;5112270;28;20132;-33
2022/12/10 11:01:04;;;;;;;4.25;2.50;;;;;;;16.98;67.04;94827.38;5113581;28;20047;-33
2022/12/10 11:03:33;;;;;;;6.32;2.88;;;;;;;17.03;66.85;94821.16;5113693;28;20079;-33
2022/12/10 11:06:00;;;;;;;4.25;3.15;;;;;;;17.02;66.83;94818.91;5113330;28;20467;-33
2022/12/10 11:08:30;;;;;;;5.43;2.08;;;;;;;17.05;66.82;94804.94;5112139;28;20030;-34
2022/12/10 11:11:03;;;;;;;3.50;2.17;;;;;;;16.99;66.96;94815.19;5113598;28;20023;-33
2022/12/10 11:13:35;;;;;;;4.32;2.92;;;;;;;17.02;67.00;94811.44;5113403;28;20070;-33
2022/12/10 11:16:22;;;;;;;4.50;2.88;;;;;;;17.09;66.62;94799.94;5113592;28;20425;-33
2022/12/10 11:18:56;;;;;;;4.55;3.00;;;;;;;17.04;66.83;94797.25;5113468;28;20468;-34
2022/12/10 11:21:25;;;;;;;3.92;2.55;;;;;;;16.98;67.03;94796.50;5110045;28;20035;-33
2022/12/10 11:23:55;;;;;;;4.90;2.47;;;;;;;17.04;66.84;94799.97;5113545;28;20026;-33
2022/12/10 11:26:51;;;;;;;3.20;1.98;;;;;;;16.92;67.25;94793.84;5113465;28;20031;-33
2022/12/10 11:29:19;;;;;;;3.72;2.30;;;;;;;16.93;67.29;94792.59;5113555;28;20024;-33
2022/12/10 11:32:22;;;;;;;2.92;2.10;;;;;;;16.95;67.02;94770.13;5113142;28;20401;-33
2022/12/10 11:35:21;;;;;;;2.78;1.80;;;;;;;16.97;66.75;94767.66;5113445;28;20526;-33
2022/12/10 11:37:50;;;;;;;3.40;2.17;;;;;;;17.05;66.30;94763.13;5113233;28;20028;-34
2022/12/10 11:40:28;;;;;;;2.92;2.00;;;;;;;17.06;66.22;94759.84;5111863;28;20096;-34
2022/12/10 11:43:12;;;;;;;3.35;1.60;;;;;;;16.97;66.57;94753.94;5113110;28;20467;-33
2022/12/10 11:46:07;;;;;;;1.83;1.45;;;;;;;17.07;66.11;94750.38;5115883;28;20067;-35
2022/12/10 11:48:53;;;;;;;2.80;1.60;;;;;;;17.03;66.24;94738.97;5116088;28;20546;-33